Decoded Metar for KLLQ (MONTICELLO in AR, USA) (IATA:LLQ) | Meteo·Mobile Aviation Weather
aviador You're here:

KLLQ Decoded Metar

MONTICELLO in AR, USA
Report Time2019-07-24 03:53:00
UTC Time2019-07-24 04:27:35
Flight Rules vfr VFR
WindCalm
Visibility9999 m
Phenomena:N/A
Clouds:N/A
Expected CloudBase > 1,600 ft AGL from Temp-Dew spread
CeilingNone
Temp19°C (ISA +5)
Dew Point15°C (78% RH)
QNH1019 hPa
Density Alt830 ft
Elevation272 ft
Report Wrong Elevation
Raw Report
KLLQ 240353Z AUTO 00000KT 10SM CLR 19/15 A3010 RMK AO2 SLP189
T01890150=

Extra information for KLLQ:More info

Metar Taf Metar & Taf Last 4 Metars F.Rules Stats Wind Profile Meteogram Temp Stats Airport Information Weather charts Add Link Nearby VenuesMetar ALERT Operation Metar Decoded Social comments

AIRNAV info for KLLQ